Time;durP1;ratioP1;P1;durP2;ratioP2;P2;SDS_P1;SDS_P2;PMS_P1;PMS_P2;Temp;Humidity;BMP_temperature;BMP_pressure;BME280_temperature;BME280_humidity;BME280_pressure;Samples;Min_cycle;Max_cycle;Signal;HPM_P1;HPM_P2
2022/03/24 00:00:26;;;;;;;11.77;7.40;;;;;;;;;;5031774;28;20535;-85
2022/03/24 00:03:30;;;;;;;11.83;7.43;;;;;;;;;;5031770;28;20539;-85
2022/03/24 00:06:34;;;;;;;13.70;7.43;;;;;;;;;;5031058;28;20547;-85
2022/03/24 00:09:39;;;;;;;13.10;7.17;;;;;;;;;;5042336;28;20590;-85
2022/03/24 00:12:43;;;;;;;10.03;7.43;;;;;;;;;;5041888;28;20646;-86
2022/03/24 00:15:47;;;;;;;11.60;7.40;;;;;;;;;;5030379;28;20539;-85
2022/03/24 00:18:52;;;;;;;11.20;7.37;;;;;;;;;;5042391;28;20610;-85
2022/03/24 00:21:57;;;;;;;12.67;7.43;;;;;;;;;;5042048;28;20559;-85
2022/03/24 00:25:02;;;;;;;9.47;6.93;;;;;;;;;;5031074;28;20535;-85
2022/03/24 00:28:06;;;;;;;13.00;8.00;;;;;;;;;;5041898;28;20622;-85
2022/03/24 00:31:10;;;;;;;12.43;6.90;;;;;;;;;;5030695;28;20552;-86
2022/03/24 00:34:14;;;;;;;16.43;7.77;;;;;;;;;;5030682;28;20598;-85
2022/03/24 00:37:18;;;;;;;10.00;6.97;;;;;;;;;;5041888;28;20618;-85
2022/03/24 00:40:22;;;;;;;10.83;7.40;;;;;;;;;;5030579;28;20535;-86
2022/03/24 00:43:26;;;;;;;10.60;7.07;;;;;;;;;;5042041;28;20539;-85
2022/03/24 00:46:31;;;;;;;12.10;7.17;;;;;;;;;;5030122;28;20550;-85
2022/03/24 00:49:38;;;;;;;10.80;7.10;;;;;;;;;;5030637;28;20551;-85
2022/03/24 00:52:43;;;;;;;11.53;7.47;;;;;;;;;;5030257;28;20950;-85
2022/03/24 00:55:47;;;;;;;9.30;6.33;;;;;;;;;;5041448;28;20594;-85
2022/03/24 00:58:52;;;;;;;12.40;6.80;;;;;;;;;;5041568;28;20630;-85
2022/03/24 01:01:59;;;;;;;10.63;7.03;;;;;;;;;;5042011;28;20590;-86
2022/03/24 01:05:07;;;;;;;12.97;7.50;;;;;;;;;;5041779;28;20550;-85
2022/03/24 01:08:13;;;;;;;11.27;6.97;;;;;;;;;;5041475;28;20638;-85
2022/03/24 01:11:17;;;;;;;14.43;7.63;;;;;;;;;;5045703;28;21081;-85
2022/03/24 01:14:22;;;;;;;11.03;7.77;;;;;;;;;;5033006;28;20615;-85
2022/03/24 01:17:27;;;;;;;8.87;6.80;;;;;;;;;;5033037;28;20626;-85
2022/03/24 01:20:31;;;;;;;10.80;7.30;;;;;;;;;;5032773;28;20551;-85
2022/03/24 01:23:35;;;;;;;12.03;7.43;;;;;;;;;;5044660;28;21073;-85
2022/03/24 01:26:39;;;;;;;10.30;6.97;;;;;;;;;;5045270;28;20602;-85
2022/03/24 01:29:44;;;;;;;14.53;7.93;;;;;;;;;;5036300;28;20602;-85
2022/03/24 01:32:51;;;;;;;12.53;7.47;;;;;;;;;;5037245;28;20645;-85
2022/03/24 01:35:55;;;;;;;10.23;6.90;;;;;;;;;;5037302;28;20551;-85
2022/03/24 01:39:00;;;;;;;11.03;6.90;;;;;;;;;;5037320;28;20547;-85
2022/03/24 01:42:05;;;;;;;14.47;7.17;;;;;;;;;;5047902;28;20606;-85
2022/03/24 01:45:10;;;;;;;11.87;7.33;;;;;;;;;;5048015;28;20547;-85
2022/03/24 01:48:14;;;;;;;11.27;7.50;;;;;;;;;;5036863;28;20625;-85
2022/03/24 01:51:19;;;;;;;10.13;6.97;;;;;;;;;;5036823;28;20598;-85
2022/03/24 01:54:24;;;;;;;10.63;7.87;;;;;;;;;;5048013;28;21223;-85
2022/03/24 01:57:30;;;;;;;11.93;7.70;;;;;;;;;;5048549;28;20629;-85
2022/03/24 02:00:34;;;;;;;10.97;7.10;;;;;;;;;;5036922;28;20606;-85
2022/03/24 02:03:39;;;;;;;10.93;6.90;;;;;;;;;;5048168;28;20594;-85
2022/03/24 02:06:44;;;;;;;11.30;7.20;;;;;;;;;;5036806;28;20599;-85
2022/03/24 02:09:48;;;;;;;17.07;7.53;;;;;;;;;;5048999;28;20543;-85
2022/03/24 02:12:56;;;;;;;11.33;7.53;;;;;;;;;;5037010;28;20646;-85
2022/03/24 02:16:01;;;;;;;11.10;7.20;;;;;;;;;;5048480;28;20543;-85
2022/03/24 02:19:13;;;;;;;12.23;6.50;;;;;;;;;;5047925;28;20539;-85
2022/03/24 02:22:17;;;;;;;11.43;7.37;;;;;;;;;;5048099;28;20867;-85
2022/03/24 02:25:28;;;;;;;11.33;7.40;;;;;;;;;;5036284;28;20531;-85
2022/03/24 02:28:32;;;;;;;10.47;6.87;;;;;;;;;;5036338;28;20621;-85
2022/03/24 02:31:38;;;;;;;12.57;7.23;;;;;;;;;;5036281;28;20539;-85
2022/03/24 02:34:49;;;;;;;12.93;6.90;;;;;;;;;;5047471;28;20606;-85
2022/03/24 02:37:53;;;;;;;11.37;7.27;;;;;;;;;;5035725;28;20617;-85
2022/03/24 02:40:57;;;;;;;11.20;7.17;;;;;;;;;;5035821;28;20594;-86
2022/03/24 02:44:04;;;;;;;11.77;6.83;;;;;;;;;;5046700;28;20590;-85
2022/03/24 02:47:10;;;;;;;11.33;7.50;;;;;;;;;;5036216;28;20622;-85
2022/03/24 02:50:14;;;;;;;13.33;7.30;;;;;;;;;;5036079;28;20606;-85
2022/03/24 02:53:19;;;;;;;10.80;7.30;;;;;;;;;;5046950;28;20591;-85
2022/03/24 02:56:23;;;;;;;8.93;6.70;;;;;;;;;;5046821;28;20547;-85
2022/03/24 02:59:27;;;;;;;11.20;6.90;;;;;;;;;;5035531;28;20550;-85
2022/03/24 03:02:32;;;;;;;10.93;7.27;;;;;;;;;;5036024;28;20543;-85
2022/03/24 03:05:36;;;;;;;12.03;8.00;;;;;;;;;;5047023;28;20555;-85
2022/03/24 03:08:41;;;;;;;13.60;7.70;;;;;;;;;;5035733;28;20637;-85
2022/03/24 03:11:46;;;;;;;11.33;7.70;;;;;;;;;;5035610;28;20544;-85
2022/03/24 03:14:51;;;;;;;11.00;7.67;;;;;;;;;;5047273;28;20594;-86
2022/03/24 03:17:56;;;;;;;11.57;7.57;;;;;;;;;;5036044;28;20962;-85
2022/03/24 03:21:00;;;;;;;12.63;6.83;;;;;;;;;;5036304;28;20543;-85
2022/03/24 03:24:06;;;;;;;11.00;7.67;;;;;;;;;;5035771;28;20543;-85
2022/03/24 03:27:11;;;;;;;11.77;7.33;;;;;;;;;;5047253;28;20638;-85
2022/03/24 03:30:16;;;;;;;9.63;6.93;;;;;;;;;;5035093;28;20602;-85
2022/03/24 03:33:21;;;;;;;11.57;7.83;;;;;;;;;;5046780;28;20646;-85
2022/03/24 03:36:25;;;;;;;12.13;7.80;;;;;;;;;;5046900;28;20551;-86
2022/03/24 03:39:29;;;;;;;12.53;8.30;;;;;;;;;;5035572;28;20543;-85
2022/03/24 03:42:34;;;;;;;13.10;8.00;;;;;;;;;;5035293;28;21140;-85
2022/03/24 03:45:38;;;;;;;12.73;8.10;;;;;;;;;;5034363;28;20543;-85
2022/03/24 03:48:43;;;;;;;17.80;7.97;;;;;;;;;;5035151;28;20614;-85
2022/03/24 03:51:48;;;;;;;12.33;8.20;;;;;;;;;;5035272;28;20606;-85
2022/03/24 03:54:52;;;;;;;13.47;7.53;;;;;;;;;;5046101;28;20650;-85
2022/03/24 03:57:57;;;;;;;11.60;7.80;;;;;;;;;;5035183;28;20618;-85
2022/03/24 04:01:05;;;;;;;13.10;8.90;;;;;;;;;;5045525;28;20551;-85
2022/03/24 04:04:12;;;;;;;13.53;8.13;;;;;;;;;;5023567;28;20539;-85
2022/03/24 04:07:18;;;;;;;12.70;7.93;;;;;;;;;;5034438;28;20638;-85
2022/03/24 04:10:22;;;;;;;10.40;7.97;;;;;;;;;;5045250;28;20958;-85
2022/03/24 04:13:27;;;;;;;12.10;8.23;;;;;;;;;;5031224;28;20642;-85
2022/03/24 04:16:31;;;;;;;14.30;8.50;;;;;;;;;;5042531;28;21066;-85
2022/03/24 04:19:35;;;;;;;10.80;7.23;;;;;;;;;;5042221;28;20555;-85
2022/03/24 04:22:39;;;;;;;10.30;7.37;;;;;;;;;;5041976;28;20535;-86
2022/03/24 04:25:45;;;;;;;12.63;8.37;;;;;;;;;;5053506;28;20539;-86
2022/03/24 04:28:51;;;;;;;13.03;8.33;;;;;;;;;;5030806;28;20618;-85
2022/03/24 04:31:55;;;;;;;13.90;8.60;;;;;;;;;;5041806;28;20539;-86
2022/03/24 04:34:59;;;;;;;11.73;7.87;;;;;;;;;;5030516;28;20602;-86
2022/03/24 04:38:04;;;;;;;12.43;8.53;;;;;;;;;;5030801;28;20617;-86
2022/03/24 04:41:08;;;;;;;13.83;8.47;;;;;;;;;;5042273;28;20539;-86
2022/03/24 04:44:13;;;;;;;14.20;9.17;;;;;;;;;;5030610;28;20926;-86
2022/03/24 04:47:17;;;;;;;15.70;9.57;;;;;;;;;;5030163;28;20618;-86
2022/03/24 04:50:22;;;;;;;15.27;8.60;;;;;;;;;;5030600;28;20594;-86
2022/03/24 04:53:25;;;;;;;12.17;8.30;;;;;;;;;;5030751;28;20590;-86
2022/03/24 04:56:30;;;;;;;14.50;9.00;;;;;;;;;;5041351;28;20613;-86
2022/03/24 04:59:34;;;;;;;14.17;8.07;;;;;;;;;;5031183;28;20550;-86
2022/03/24 05:02:39;;;;;;;12.23;8.30;;;;;;;;;;5042528;28;20547;-85
2022/03/24 05:05:42;;;;;;;12.50;8.60;;;;;;;;;;5030493;28;20547;-86
2022/03/24 05:08:47;;;;;;;12.63;8.50;;;;;;;;;;5030296;28;20638;-85
2022/03/24 05:11:51;;;;;;;12.73;8.47;;;;;;;;;;5030319;28;20938;-86
2022/03/24 05:14:55;;;;;;;12.73;8.40;;;;;;;;;;5041746;28;20638;-86
2022/03/24 05:17:59;;;;;;;12.13;8.53;;;;;;;;;;5041119;28;20626;-86
2022/03/24 05:21:04;;;;;;;15.10;8.70;;;;;;;;;;5029951;28;20590;-86
2022/03/24 05:24:09;;;;;;;16.20;9.63;;;;;;;;;;5030748;28;20536;-86
2022/03/24 05:27:13;;;;;;;13.03;8.57;;;;;;;;;;5041967;28;20615;-86
2022/03/24 05:30:17;;;;;;;12.83;8.63;;;;;;;;;;5041585;28;20547;-86
2022/03/24 05:33:22;;;;;;;13.83;8.90;;;;;;;;;;5030055;28;20594;-86
2022/03/24 05:36:26;;;;;;;18.50;9.67;;;;;;;;;;5030000;28;20531;-86
2022/03/24 05:39:30;;;;;;;13.67;8.73;;;;;;;;;;5030188;28;20543;-86
2022/03/24 05:42:34;;;;;;;15.77;8.57;;;;;;;;;;5041206;28;20586;-86
2022/03/24 05:45:39;;;;;;;15.03;8.27;;;;;;;;;;5041164;28;21144;-86
2022/03/24 05:48:43;;;;;;;13.90;8.70;;;;;;;;;;5052123;28;20626;-85
2022/03/24 05:52:13;;;;;;;12.23;8.40;;;;;;;;;;5038297;28;20633;-86
2022/03/24 05:55:17;;;;;;;15.13;8.23;;;;;;;;;;5040767;28;20598;-85
2022/03/24 05:58:21;;;;;;;15.97;9.70;;;;;;;;;;5041210;28;20618;-85
2022/03/24 06:01:26;;;;;;;16.17;9.23;;;;;;;;;;5041346;28;20594;-85
2022/03/24 06:04:30;;;;;;;11.97;8.47;;;;;;;;;;5040726;28;20601;-87
2022/03/24 06:07:34;;;;;;;16.23;8.80;;;;;;;;;;5052450;28;20638;-85
2022/03/24 06:10:39;;;;;;;15.90;9.60;;;;;;;;;;5029207;28;20590;-85
2022/03/24 06:13:43;;;;;;;14.67;9.27;;;;;;;;;;5043263;28;21156;-85
2022/03/24 06:16:48;;;;;;;16.97;9.37;;;;;;;;;;5044776;28;20543;-85
2022/03/24 06:19:53;;;;;;;19.37;9.57;;;;;;;;;;5044348;28;20559;-85
2022/03/24 06:22:57;;;;;;;15.37;9.47;;;;;;;;;;5055666;28;20594;-85
2022/03/24 06:26:03;;;;;;;13.67;8.67;;;;;;;;;;5044419;28;20868;-85
2022/03/24 06:29:11;;;;;;;17.93;9.10;;;;;;;;;;5033076;28;20895;-85
2022/03/24 06:32:15;;;;;;;16.23;9.90;;;;;;;;;;5044754;28;20883;-86
2022/03/24 06:35:19;;;;;;;17.63;10.87;;;;;;;;;;5043993;28;20607;-86
2022/03/24 06:38:23;;;;;;;19.70;11.43;;;;;;;;;;5055469;28;20635;-86
2022/03/24 06:41:28;;;;;;;17.40;10.07;;;;;;;;;;5032693;28;20602;-87
2022/03/24 06:44:32;;;;;;;15.67;10.07;;;;;;;;;;5020861;28;20609;-86
2022/03/24 06:47:38;;;;;;;19.07;10.03;;;;;;;;;;5032638;28;20684;-86
2022/03/24 06:50:42;;;;;;;22.20;10.40;;;;;;;;;;5043646;28;20554;-86
2022/03/24 06:53:47;;;;;;;18.57;9.37;;;;;;;;;;5043922;28;21085;-87
2022/03/24 06:56:50;;;;;;;16.10;10.27;;;;;;;;;;5043631;28;20531;-86
2022/03/24 06:59:55;;;;;;;28.57;12.43;;;;;;;;;;5047171;28;20542;-85
2022/03/24 07:03:01;;;;;;;32.67;16.60;;;;;;;;;;5048676;28;20632;-85
2022/03/24 07:06:05;;;;;;;37.90;19.87;;;;;;;;;;5032317;28;20648;-87
2022/03/24 07:09:09;;;;;;;18.40;12.17;;;;;;;;;;5035154;28;20197;-87
2022/03/24 07:12:19;;;;;;;17.83;10.17;;;;;;;;;;5036359;28;20187;-88
2022/03/24 07:15:25;;;;;;;16.40;10.50;;;;;;;;;;5045510;28;20560;-87
2022/03/24 07:18:29;;;;;;;16.60;10.87;;;;;;;;;;5032225;28;20218;-87
2022/03/24 07:21:34;;;;;;;18.40;10.63;;;;;;;;;;5032157;28;20203;-87
2022/03/24 07:24:38;;;;;;;15.77;10.20;;;;;;;;;;5020440;28;20207;-87
2022/03/24 07:27:43;;;;;;;16.83;10.33;;;;;;;;;;5031565;28;20223;-87
2022/03/24 07:30:50;;;;;;;15.90;10.27;;;;;;;;;;5031953;28;20189;-87
2022/03/24 07:33:56;;;;;;;17.60;11.00;;;;;;;;;;5048347;28;20187;-86
2022/03/24 07:37:03;;;;;;;18.63;10.70;;;;;;;;;;5054656;28;20725;-87
2022/03/24 07:40:09;;;;;;;17.07;11.83;;;;;;;;;;5031665;28;20187;-86
2022/03/24 07:43:13;;;;;;;18.53;11.60;;;;;;;;;;5031338;28;20559;-87
2022/03/24 07:46:18;;;;;;;16.93;11.90;;;;;;;;;;5042689;28;20183;-87
2022/03/24 07:49:22;;;;;;;17.10;12.07;;;;;;;;;;5031642;28;20187;-86
2022/03/24 07:52:30;;;;;;;21.67;12.30;;;;;;;;;;5020346;28;20199;-86
2022/03/24 07:55:38;;;;;;;17.47;12.23;;;;;;;;;;5032998;28;20254;-86
2022/03/24 07:58:42;;;;;;;16.63;11.57;;;;;;;;;;5033405;28;20230;-86
2022/03/24 08:01:46;;;;;;;18.20;12.20;;;;;;;;;;5044271;28;20187;-86
2022/03/24 08:04:52;;;;;;;18.03;12.47;;;;;;;;;;5056428;28;20179;-87
2022/03/24 08:07:57;;;;;;;20.97;12.53;;;;;;;;;;5042117;28;20230;-87
2022/03/24 08:11:01;;;;;;;18.77;11.57;;;;;;;;;;5034548;28;20199;-87
2022/03/24 08:14:06;;;;;;;18.87;12.20;;;;;;;;;;5042265;28;20206;-86
2022/03/24 08:17:10;;;;;;;18.50;13.23;;;;;;;;;;5043454;28;20705;-86
2022/03/24 08:20:15;;;;;;;17.40;12.20;;;;;;;;;;5056669;28;20183;-86
2022/03/24 08:23:21;;;;;;;17.83;12.00;;;;;;;;;;5032322;28;20187;-87
2022/03/24 08:26:25;;;;;;;21.93;12.53;;;;;;;;;;5033004;28;20183;-86
2022/03/24 08:29:29;;;;;;;18.93;12.17;;;;;;;;;;5023840;28;20187;-86
2022/03/24 08:32:33;;;;;;;17.07;11.73;;;;;;;;;;5020030;28;20187;-86
2022/03/24 08:35:39;;;;;;;20.73;12.73;;;;;;;;;;5030718;28;20223;-86
2022/03/24 08:38:43;;;;;;;17.63;12.47;;;;;;;;;;5030205;28;20224;-86
2022/03/24 08:41:47;;;;;;;19.33;12.77;;;;;;;;;;5032969;28;20191;-86
2022/03/24 08:44:51;;;;;;;18.60;13.57;;;;;;;;;;5042590;28;20535;-87
2022/03/24 08:47:55;;;;;;;19.57;13.00;;;;;;;;;;5030329;28;20582;-86
2022/03/24 08:51:00;;;;;;;28.30;13.20;;;;;;;;;;5042656;28;20191;-86
2022/03/24 08:54:04;;;;;;;17.43;13.13;;;;;;;;;;5031451;28;20187;-87
2022/03/24 08:57:09;;;;;;;20.47;13.10;;;;;;;;;;5057470;28;20570;-86
2022/03/24 09:00:17;;;;;;;17.47;13.57;;;;;;;;;;5030825;28;20183;-87
2022/03/24 09:03:21;;;;;;;18.60;13.87;;;;;;;;;;5031578;28;20191;-86
2022/03/24 09:06:25;;;;;;;18.83;13.13;;;;;;;;;;5042787;28;20539;-87
2022/03/24 09:09:29;;;;;;;24.37;13.77;;;;;;;;;;5055232;28;20183;-86
2022/03/24 09:12:35;;;;;;;17.83;13.70;;;;;;;;;;5022176;28;20701;-86
2022/03/24 09:15:40;;;;;;;17.90;13.23;;;;;;;;;;5031043;28;20689;-86
2022/03/24 09:18:44;;;;;;;18.83;13.73;;;;;;;;;;5031349;28;20218;-86
2022/03/24 09:21:48;;;;;;;18.40;14.37;;;;;;;;;;5042339;28;20183;-86
2022/03/24 09:24:52;;;;;;;22.07;14.00;;;;;;;;;;5022116;28;20182;-87
2022/03/24 09:27:57;;;;;;;19.07;13.83;;;;;;;;;;5031315;28;20219;-87
2022/03/24 09:31:01;;;;;;;18.43;14.00;;;;;;;;;;5030159;28;20179;-87
2022/03/24 09:34:05;;;;;;;19.23;14.97;;;;;;;;;;5031724;28;20195;-86
2022/03/24 09:37:10;;;;;;;26.87;22.13;;;;;;;;;;5044553;28;20219;-86
2022/03/24 09:40:14;;;;;;;74.27;19.20;;;;;;;;;;5031428;28;20179;-87
2022/03/24 09:43:19;;;;;;;20.03;14.73;;;;;;;;;;5030184;28;20203;-87
2022/03/24 09:46:27;;;;;;;20.53;14.63;;;;;;;;;;5041150;28;20199;-87
2022/03/24 09:49:32;;;;;;;20.07;14.60;;;;;;;;;;5033527;28;20179;-87
2022/03/24 09:52:37;;;;;;;20.87;14.87;;;;;;;;;;5033722;28;20180;-87
2022/03/24 09:55:43;;;;;;;18.43;14.87;;;;;;;;;;5033568;28;20211;-87
2022/03/24 09:58:48;;;;;;;21.83;15.07;;;;;;;;;;5033291;28;20219;-86
2022/03/24 10:01:52;;;;;;;20.80;14.50;;;;;;;;;;5033232;28;20187;-86
2022/03/24 10:05:01;;;;;;;24.60;14.83;;;;;;;;;;5022115;28;20192;-86
2022/03/24 10:08:06;;;;;;;19.37;15.07;;;;;;;;;;5032652;28;20232;-86
2022/03/24 10:11:10;;;;;;;18.70;15.20;;;;;;;;;;5044452;28;20194;-87
2022/03/24 10:14:22;;;;;;;33.53;16.07;;;;;;;;;;5033682;28;20555;-87
2022/03/24 10:17:27;;;;;;;19.40;14.63;;;;;;;;;;5044216;28;20725;-87
2022/03/24 10:20:32;;;;;;;19.73;15.23;;;;;;;;;;5044993;28;20187;-87
2022/03/24 10:23:43;;;;;;;19.70;15.03;;;;;;;;;;5032794;28;20189;-87
2022/03/24 10:26:48;;;;;;;19.70;15.33;;;;;;;;;;5032959;28;20193;-86
2022/03/24 10:29:56;;;;;;;27.83;19.40;;;;;;;;;;5044236;28;20187;-87
2022/03/24 10:33:00;;;;;;;19.33;15.57;;;;;;;;;;5032971;28;20193;-86
2022/03/24 10:36:12;;;;;;;19.50;15.27;;;;;;;;;;5021059;28;20261;-87
2022/03/24 10:39:23;;;;;;;18.83;14.93;;;;;;;;;;5032322;28;20200;-87
2022/03/24 10:42:31;;;;;;;19.30;14.63;;;;;;;;;;5021295;28;20189;-87
2022/03/24 10:45:35;;;;;;;17.83;14.30;;;;;;;;;;5032135;28;20188;-87
2022/03/24 10:48:39;;;;;;;17.73;13.80;;;;;;;;;;5021697;28;20219;-87
2022/03/24 10:51:46;;;;;;;15.40;13.27;;;;;;;;;;5034163;28;20199;-87
2022/03/24 10:54:50;;;;;;;20.00;14.27;;;;;;;;;;5055907;28;20187;-87
2022/03/24 10:57:56;;;;;;;18.13;14.33;;;;;;;;;;5032179;28;20233;-86
2022/03/24 11:01:03;;;;;;;16.53;13.43;;;;;;;;;;5032683;28;20192;-87
2022/03/24 11:04:08;;;;;;;20.00;15.03;;;;;;;;;;5033047;28;20204;-87
2022/03/24 11:07:12;;;;;;;19.20;14.10;;;;;;;;;;5033052;28;20229;-87
2022/03/24 11:10:16;;;;;;;17.90;13.00;;;;;;;;;;5032551;28;20687;-87
2022/03/24 11:13:43;;;;;;;21.73;13.37;;;;;;;;;;5033200;28;20207;-87
2022/03/24 11:16:47;;;;;;;17.40;12.50;;;;;;;;;;5044286;28;20212;-87
2022/03/24 11:20:04;;;;;;;17.33;12.43;;;;;;;;;;5031780;28;20554;-87
2022/03/24 11:23:21;;;;;;;16.83;12.10;;;;;;;;;;5033548;28;20262;-86
2022/03/24 11:26:26;;;;;;;15.50;13.57;;;;;;;;;;5055683;28;20185;-87
2022/03/24 11:29:30;;;;;;;15.60;13.10;;;;;;;;;;5019882;28;20208;-87
2022/03/24 11:32:36;;;;;;;19.20;12.13;;;;;;;;;;5032542;28;20549;-87
2022/03/24 11:35:41;;;;;;;18.80;12.50;;;;;;;;;;5042904;28;20234;-87
2022/03/24 11:38:58;;;;;;;16.10;12.17;;;;;;;;;;5034346;28;20228;-87
2022/03/24 11:42:03;;;;;;;17.30;13.00;;;;;;;;;;5023857;28;20187;-87
2022/03/24 11:45:19;;;;;;;16.60;12.60;;;;;;;;;;5045026;28;20188;-87
2022/03/24 11:48:41;;;;;;;13.60;11.93;;;;;;;;;;5034360;28;20212;-87
2022/03/24 11:51:48;;;;;;;12.20;9.80;;;;;;;;;;5045134;28;20188;-87
2022/03/24 11:54:55;;;;;;;17.20;12.23;;;;;;;;;;5032974;28;20179;-87
2022/03/24 11:58:00;;;;;;;12.83;10.27;;;;;;;;;;5033066;28;20714;-86
2022/03/24 12:01:19;;;;;;;13.77;10.33;;;;;;;;;;5033253;28;20203;-86
2022/03/24 12:04:23;;;;;;;9.33;8.17;;;;;;;;;;5033666;28;20189;-86
2022/03/24 12:07:29;;;;;;;14.17;8.67;;;;;;;;;;5032509;28;20225;-87
2022/03/24 12:10:33;;;;;;;11.13;9.00;;;;;;;;;;5043771;28;20196;-87
2022/03/24 12:13:37;;;;;;;7.73;6.03;;;;;;;;;;5044036;28;20186;-87
2022/03/24 12:16:48;;;;;;;9.03;6.07;;;;;;;;;;5032860;28;20756;-87
2022/03/24 12:19:57;;;;;;;9.93;7.23;;;;;;;;;;5055741;28;20180;-87
2022/03/24 12:23:01;;;;;;;8.47;6.90;;;;;;;;;;5044024;28;20187;-87
2022/03/24 12:26:09;;;;;;;13.87;8.70;;;;;;;;;;5033035;28;20178;-87
2022/03/24 12:29:19;;;;;;;16.37;9.73;;;;;;;;;;5032371;28;20191;-87
2022/03/24 12:32:28;;;;;;;14.90;8.67;;;;;;;;;;5056298;28;20211;-87
2022/03/24 12:35:53;;;;;;;11.53;10.10;;;;;;;;;;5032596;28;20192;-87
2022/03/24 12:38:57;;;;;;;9.50;7.73;;;;;;;;;;5032314;28;20226;-87
2022/03/24 12:42:11;;;;;;;8.23;7.07;;;;;;;;;;5043868;28;20181;-87
2022/03/24 12:45:27;;;;;;;9.63;7.33;;;;;;;;;;5055583;28;20652;-87
2022/03/24 12:48:39;;;;;;;10.37;7.33;;;;;;;;;;5031948;28;20212;-87
2022/03/24 12:52:02;;;;;;;9.03;6.90;;;;;;;;;;5032381;28;20207;-87
2022/03/24 12:55:22;;;;;;;7.77;6.67;;;;;;;;;;5031894;28;20524;-87
2022/03/24 12:58:27;;;;;;;10.43;6.93;;;;;;;;;;5032491;28;20695;-87
2022/03/24 13:01:31;;;;;;;8.57;6.77;;;;;;;;;;5044280;28;20670;-87
2022/03/24 13:04:36;;;;;;;7.47;6.67;;;;;;;;;;5032348;28;20525;-86
2022/03/24 13:07:48;;;;;;;7.13;6.20;;;;;;;;;;5032819;28;20695;-87
2022/03/24 13:11:01;;;;;;;8.70;6.23;;;;;;;;;;4975165;23;20238;-83
2022/03/24 13:14:09;;;;;;;9.20;5.97;;;;;;;;;;4922637;29;20191;-84
2022/03/24 13:17:15;;;;;;;17.03;7.23;;;;;;;;;;4922888;29;20210;-84
2022/03/24 13:20:21;;;;;;;8.83;7.10;;;;;;;;;;4922466;29;20221;-84
2022/03/24 13:23:25;;;;;;;9.70;6.67;;;;;;;;;;4935687;29;20180;-84
2022/03/24 13:26:29;;;;;;;9.73;6.40;;;;;;;;;;4936722;29;20176;-84
2022/03/24 13:29:42;;;;;;;9.60;6.70;;;;;;;;;;4914873;29;20216;-84
2022/03/24 13:32:51;;;;;;;9.67;6.10;;;;;;;;;;4936764;29;20180;-84
2022/03/24 13:35:55;;;;;;;12.97;6.40;;;;;;;;;;4936377;29;20191;-84
2022/03/24 13:38:59;;;;;;;7.87;4.90;;;;;;;;;;4937083;29;20190;-85
2022/03/24 13:42:08;;;;;;;7.73;6.27;;;;;;;;;;4936354;29;20185;-84
2022/03/24 13:45:13;;;;;;;9.23;6.13;;;;;;;;;;4936279;29;20184;-84
2022/03/24 13:48:26;;;;;;;6.90;6.20;;;;;;;;;;4936901;29;20183;-85
2022/03/24 13:51:30;;;;;;;7.47;5.93;;;;;;;;;;4936350;29;20559;-85
2022/03/24 13:54:35;;;;;;;7.07;5.60;;;;;;;;;;4914745;29;20196;-87
2022/03/24 13:58:08;;;;;;;9.53;6.17;;;;;;;;;;4925556;29;20208;-87
2022/03/24 14:01:14;;;;;;;9.07;6.60;;;;;;;;;;4936290;29;20221;-85
2022/03/24 14:04:19;;;;;;;7.87;6.13;;;;;;;;;;4936184;29;20212;-85
2022/03/24 14:07:23;;;;;;;7.70;6.30;;;;;;;;;;4936040;29;20175;-87
2022/03/24 14:10:50;;;;;;;19.50;7.10;;;;;;;;;;4935635;29;20573;-86
2022/03/24 14:13:58;;;;;;;24.93;12.80;;;;;;;;;;4936393;29;20200;-85
2022/03/24 14:17:12;;;;;;;10.07;7.53;;;;;;;;;;4935900;29;20234;-86
2022/03/24 14:20:16;;;;;;;7.00;6.30;;;;;;;;;;4935907;29;20229;-85
2022/03/24 14:23:28;;;;;;;8.33;6.33;;;;;;;;;;4938234;29;20188;-85
2022/03/24 14:26:32;;;;;;;9.00;6.50;;;;;;;;;;4937283;29;20190;-85
2022/03/24 14:29:41;;;;;;;7.80;6.40;;;;;;;;;;4935859;29;20228;-87
2022/03/24 14:32:49;;;;;;;6.40;5.70;;;;;;;;;;4936847;29;20182;-86
2022/03/24 14:35:57;;;;;;;9.47;6.07;;;;;;;;;;4935746;29;20176;-85
2022/03/24 14:39:21;;;;;;;7.87;5.90;;;;;;;;;;4924750;29;20516;-87
2022/03/24 14:42:25;;;;;;;6.40;5.67;;;;;;;;;;4935606;29;20188;-86
2022/03/24 14:45:30;;;;;;;5.97;5.37;;;;;;;;;;4936312;29;20528;-87
2022/03/24 14:48:35;;;;;;;7.80;6.50;;;;;;;;;;4925275;29;20181;-86
2022/03/24 14:51:41;;;;;;;6.87;5.90;;;;;;;;;;4935391;29;20188;-86
2022/03/24 14:54:45;;;;;;;8.50;5.97;;;;;;;;;;4935578;29;20184;-85
2022/03/24 14:57:51;;;;;;;8.93;6.30;;;;;;;;;;4936487;29;20228;-87
2022/03/24 15:00:55;;;;;;;9.53;5.83;;;;;;;;;;4935733;29;20224;-85
2022/03/24 15:04:00;;;;;;;6.93;5.57;;;;;;;;;;4924432;29;20188;-86
2022/03/24 15:07:04;;;;;;;5.90;5.30;;;;;;;;;;4935424;29;20176;-85
2022/03/24 15:10:10;;;;;;;6.10;5.07;;;;;;;;;;4935181;29;20228;-86
2022/03/24 15:13:16;;;;;;;5.60;5.03;;;;;;;;;;4935352;29;20184;-85
2022/03/24 15:16:20;;;;;;;9.50;5.20;;;;;;;;;;4935178;29;20188;-86
2022/03/24 15:19:25;;;;;;;10.13;5.53;;;;;;;;;;4935471;29;20181;-85
2022/03/24 15:22:31;;;;;;;9.03;5.50;;;;;;;;;;4913669;29;20554;-86
2022/03/24 15:25:35;;;;;;;10.70;6.57;;;;;;;;;;4924608;29;20181;-86
2022/03/24 15:28:39;;;;;;;9.13;6.27;;;;;;;;;;4934758;29;20209;-86
2022/03/24 15:31:46;;;;;;;8.13;6.27;;;;;;;;;;4934735;29;20200;-86
2022/03/24 15:34:50;;;;;;;7.83;6.60;;;;;;;;;;4934785;29;20177;-86
2022/03/24 15:37:55;;;;;;;8.10;7.10;;;;;;;;;;4936227;29;20208;-87
2022/03/24 15:41:00;;;;;;;8.67;7.30;;;;;;;;;;4934632;29;20224;-87
2022/03/24 15:44:04;;;;;;;11.67;6.60;;;;;;;;;;4923883;29;20204;-87
2022/03/24 15:47:08;;;;;;;10.37;6.27;;;;;;;;;;4934816;29;20633;-87
2022/03/24 15:50:15;;;;;;;8.43;6.53;;;;;;;;;;4935181;29;20223;-87
2022/03/24 15:53:19;;;;;;;9.23;6.10;;;;;;;;;;4934899;29;20188;-87
2022/03/24 15:56:23;;;;;;;9.27;6.47;;;;;;;;;;4935082;29;20635;-86
2022/03/24 15:59:28;;;;;;;12.73;7.53;;;;;;;;;;4934838;29;20706;-86
2022/03/24 16:02:32;;;;;;;10.10;7.37;;;;;;;;;;4934802;29;20187;-87
2022/03/24 16:05:37;;;;;;;11.73;7.53;;;;;;;;;;4923413;29;20192;-86
2022/03/24 16:08:41;;;;;;;11.73;7.67;;;;;;;;;;4924011;28;20207;-87
2022/03/24 16:11:45;;;;;;;13.90;8.77;;;;;;;;;;4937345;29;20199;-86
2022/03/24 16:14:49;;;;;;;15.63;8.77;;;;;;;;;;4934899;28;20200;-86
2022/03/24 16:17:53;;;;;;;12.90;8.00;;;;;;;;;;4934410;29;20219;-87
2022/03/24 16:20:57;;;;;;;16.10;8.30;;;;;;;;;;4934335;29;20233;-87
2022/03/24 16:24:01;;;;;;;12.10;8.63;;;;;;;;;;4923645;29;20181;-87
2022/03/24 16:27:06;;;;;;;11.70;7.50;;;;;;;;;;4934069;29;20207;-87
2022/03/24 16:30:10;;;;;;;9.23;6.80;;;;;;;;;;4934061;28;20732;-87
2022/03/24 16:33:15;;;;;;;8.73;6.93;;;;;;;;;;4934281;29;20184;-87
2022/03/24 16:36:19;;;;;;;8.70;7.23;;;;;;;;;;4933592;29;20189;-86
2022/03/24 16:39:24;;;;;;;12.53;6.73;;;;;;;;;;4933612;29;20184;-87
2022/03/24 16:42:29;;;;;;;9.80;7.50;;;;;;;;;;4934053;29;20191;-87
2022/03/24 16:45:34;;;;;;;8.57;6.17;;;;;;;;;;4934357;29;20184;-87
2022/03/24 16:48:38;;;;;;;7.57;6.20;;;;;;;;;;4922994;29;20176;-88
2022/03/24 16:51:42;;;;;;;7.63;6.10;;;;;;;;;;4923112;29;20524;-87
2022/03/24 16:54:46;;;;;;;7.77;5.73;;;;;;;;;;4933805;29;20634;-87
2022/03/24 16:57:50;;;;;;;10.03;6.87;;;;;;;;;;4933308;29;20216;-87
2022/03/24 17:00:55;;;;;;;6.77;5.93;;;;;;;;;;4933179;29;20226;-87
2022/03/24 17:03:59;;;;;;;8.40;6.27;;;;;;;;;;4933685;29;20176;-87
2022/03/24 17:07:06;;;;;;;11.07;6.03;;;;;;;;;;4922411;29;20200;-87
2022/03/24 17:10:10;;;;;;;10.53;6.07;;;;;;;;;;4933268;29;20266;-87
2022/03/24 17:13:14;;;;;;;9.30;5.87;;;;;;;;;;4933464;29;20181;-87
2022/03/24 17:16:18;;;;;;;6.97;5.50;;;;;;;;;;4933794;29;20185;-85
2022/03/24 17:19:22;;;;;;;24.80;6.73;;;;;;;;;;4922369;29;20689;-85
2022/03/24 17:22:27;;;;;;;10.00;5.13;;;;;;;;;;4935220;29;20196;-85
2022/03/24 17:25:31;;;;;;;6.37;5.13;;;;;;;;;;4923398;29;20196;-85
2022/03/24 17:28:36;;;;;;;6.93;5.43;;;;;;;;;;4934264;29;20180;-85
2022/03/24 17:31:40;;;;;;;6.20;4.87;;;;;;;;;;4923060;29;20188;-85
2022/03/24 17:34:44;;;;;;;11.07;4.77;;;;;;;;;;4922983;29;20647;-85
2022/03/24 17:37:52;;;;;;;6.03;4.90;;;;;;;;;;4933667;29;20687;-85
2022/03/24 17:40:57;;;;;;;5.83;4.47;;;;;;;;;;4933737;29;20220;-85
2022/03/24 17:44:02;;;;;;;7.03;4.70;;;;;;;;;;4923765;29;20181;-85
2022/03/24 17:47:07;;;;;;;7.03;4.27;;;;;;;;;;4934081;29;20180;-85
2022/03/24 17:50:11;;;;;;;7.67;4.93;;;;;;;;;;4934013;29;20220;-85
2022/03/24 17:53:16;;;;;;;7.23;4.60;;;;;;;;;;4933765;29;20528;-85
2022/03/24 17:56:20;;;;;;;10.93;4.93;;;;;;;;;;4922768;29;20184;-85
2022/03/24 17:59:24;;;;;;;5.00;4.33;;;;;;;;;;4924065;29;20224;-85
2022/03/24 18:02:28;;;;;;;6.47;4.30;;;;;;;;;;4934959;29;20184;-85
2022/03/24 18:05:32;;;;;;;7.50;5.10;;;;;;;;;;4934471;29;20189;-85
2022/03/24 18:08:37;;;;;;;10.60;4.60;;;;;;;;;;4935042;29;20180;-85
2022/03/24 18:11:41;;;;;;;6.03;4.10;;;;;;;;;;4937929;29;20191;-85
2022/03/24 18:14:45;;;;;;;7.20;4.83;;;;;;;;;;4937173;29;20670;-85